createdAt,value
2022-12-17T00:00:12.625Z,-0.92
2022-12-17T00:02:58.133Z,-0.94
2022-12-17T00:06:00.087Z,-0.95
2022-12-17T00:08:45.593Z,-0.97
2022-12-17T00:11:31.163Z,-1.01
2022-12-17T00:14:16.564Z,-1.11
2022-12-17T00:17:02.032Z,-1.06
2022-12-17T00:19:47.436Z,-1.03
2022-12-17T00:22:32.756Z,-0.98
2022-12-17T00:25:17.933Z,-0.97
2022-12-17T00:28:03.895Z,-0.95
2022-12-17T00:30:49.258Z,-0.93
2022-12-17T00:33:35.004Z,-0.95
2022-12-17T00:36:20.799Z,-0.93
2022-12-17T00:39:23.004Z,-0.94
2022-12-17T00:42:08.401Z,-0.95
2022-12-17T00:45:02.255Z,-0.96
2022-12-17T00:47:47.531Z,-1.00
2022-12-17T00:50:32.879Z,-1.10
2022-12-17T00:53:18.238Z,-1.21
2022-12-17T00:56:03.651Z,-1.22
2022-12-17T00:58:49.009Z,-1.28
2022-12-17T01:01:34.625Z,-1.38
2022-12-17T01:04:20.023Z,-1.41
2022-12-17T01:07:05.285Z,-1.42
2022-12-17T01:09:50.490Z,-1.40
2022-12-17T01:12:36.121Z,-1.38
2022-12-17T01:15:21.455Z,-1.44
2022-12-17T01:18:06.763Z,-1.52
2022-12-17T01:20:52.334Z,-1.66
2022-12-17T01:23:38.080Z,-1.75
2022-12-17T01:26:24.173Z,-1.85
2022-12-17T01:29:09.682Z,-1.84
2022-12-17T01:31:55.102Z,-1.82
2022-12-17T01:34:40.512Z,-1.85
2022-12-17T01:37:26.398Z,-1.89
2022-12-17T01:40:11.835Z,-1.89
2022-12-17T01:43:02.466Z,-1.87
2022-12-17T01:45:57.888Z,-1.89
2022-12-17T01:48:50.401Z,-1.89
2022-12-17T01:51:36.801Z,-1.88
2022-12-17T01:54:23.595Z,-1.90
2022-12-17T01:57:09.409Z,-1.96
2022-12-17T02:00:24.184Z,-2.05
2022-12-17T02:03:09.635Z,-2.05
2022-12-17T02:06:06.992Z,-2.06
2022-12-17T02:09:00.346Z,-2.04
2022-12-17T02:12:13.821Z,-2.01
2022-12-17T02:15:10.715Z,-2.04
2022-12-17T02:18:02.516Z,-1.99
2022-12-17T02:21:01.118Z,-1.96
2022-12-17T02:24:20.345Z,-1.94
2022-12-17T02:27:15.975Z,-1.89
2022-12-17T02:30:04.927Z,-1.84
2022-12-17T02:32:53.999Z,-1.81
2022-12-17T02:36:06.115Z,-1.85
2022-12-17T02:38:52.190Z,-1.92
2022-12-17T02:41:44.357Z,-1.99
2022-12-17T02:44:31.441Z,-2.01
2022-12-17T02:47:21.245Z,-2.09
2022-12-17T02:50:06.747Z,-2.17
2022-12-17T02:52:58.835Z,-2.19
2022-12-17T02:55:45.491Z,-2.25
2022-12-17T02:58:32.187Z,-2.30
2022-12-17T03:01:19.467Z,-2.37
2022-12-17T03:04:04.772Z,-2.40
2022-12-17T03:06:50.315Z,-2.38
2022-12-17T03:09:35.539Z,-2.41
2022-12-17T03:12:22.034Z,-2.48
2022-12-17T03:15:07.467Z,-2.47
2022-12-17T03:17:52.858Z,-2.47
2022-12-17T03:20:38.322Z,-2.48
2022-12-17T03:23:27.138Z,-2.51
2022-12-17T03:26:13.014Z,-2.54
2022-12-17T03:28:58.488Z,-2.56
2022-12-17T03:31:43.788Z,-2.54
2022-12-17T03:34:29.240Z,-2.48
2022-12-17T03:37:14.622Z,-2.45
2022-12-17T03:40:00.178Z,-2.48
2022-12-17T03:42:45.619Z,-2.48
2022-12-17T03:45:30.939Z,-2.52
2022-12-17T03:48:31.029Z,-2.55
2022-12-17T03:51:16.891Z,-2.55
2022-12-17T03:54:02.789Z,-2.54
2022-12-17T03:56:48.709Z,-2.49
2022-12-17T03:59:34.037Z,-2.54
2022-12-17T04:02:19.740Z,-2.49
2022-12-17T04:05:04.847Z,-2.48
2022-12-17T04:07:54.673Z,-2.46
2022-12-17T04:10:39.794Z,-2.43
2022-12-17T04:13:25.319Z,-2.45
2022-12-17T04:16:10.793Z,-2.41
2022-12-17T04:18:56.034Z,-2.39
2022-12-17T04:21:41.402Z,-2.42
2022-12-17T04:24:29.949Z,-2.51
2022-12-17T04:27:15.288Z,-2.55
2022-12-17T04:30:00.616Z,-2.57
2022-12-17T04:32:45.940Z,-2.65
2022-12-17T04:35:31.272Z,-2.65
2022-12-17T04:38:16.814Z,-2.68
2022-12-17T04:41:02.267Z,-2.72
2022-12-17T04:43:47.756Z,-2.78
2022-12-17T04:46:33.400Z,-2.78
2022-12-17T04:49:18.999Z,-2.73
2022-12-17T04:52:04.525Z,-2.74
2022-12-17T04:54:50.003Z,-2.73
2022-12-17T04:57:35.493Z,-2.71
2022-12-17T05:00:21.056Z,-2.69
2022-12-17T05:03:06.346Z,-2.68
2022-12-17T05:05:51.833Z,-2.72
2022-12-17T05:08:41.385Z,-2.72
2022-12-17T05:11:27.041Z,-2.76
2022-12-17T05:14:12.496Z,-2.81
2022-12-17T05:16:57.792Z,-2.81
2022-12-17T05:19:43.114Z,-2.82
2022-12-17T05:22:28.569Z,-2.83
2022-12-17T05:25:13.947Z,-2.87
2022-12-17T05:28:01.256Z,-2.96
2022-12-17T05:30:46.570Z,-2.97
2022-12-17T05:33:31.590Z,-2.95
2022-12-17T05:36:20.623Z,-2.94
2022-12-17T05:39:07.066Z,-2.98
2022-12-17T05:41:53.628Z,-2.97
2022-12-17T05:44:39.052Z,-2.93
2022-12-17T05:47:24.839Z,-2.88
2022-12-17T05:50:10.228Z,-2.90
2022-12-17T05:52:55.568Z,-2.93
2022-12-17T05:55:40.889Z,-2.93
2022-12-17T05:58:29.928Z,-2.98
2022-12-17T06:01:17.052Z,-2.99
2022-12-17T06:04:02.537Z,-2.95
2022-12-17T06:06:48.288Z,-2.92
2022-12-17T06:09:33.592Z,-2.93
2022-12-17T06:12:18.979Z,-2.96
2022-12-17T06:15:04.428Z,-2.92
2022-12-17T06:17:49.591Z,-2.95
2022-12-17T06:20:34.979Z,-2.97
2022-12-17T06:23:20.827Z,-2.98
2022-12-17T06:26:06.124Z,-2.96
2022-12-17T06:28:51.441Z,-2.92
2022-12-17T06:31:41.341Z,-2.97
2022-12-17T06:34:27.040Z,-2.99
2022-12-17T06:37:12.404Z,-3.01
2022-12-17T06:39:58.177Z,-3.02
2022-12-17T06:42:43.707Z,-3.12
2022-12-17T06:45:28.998Z,-3.23
2022-12-17T06:48:26.734Z,-3.21
2022-12-17T06:51:12.978Z,-3.17
2022-12-17T06:53:59.456Z,-3.19
2022-12-17T06:56:45.443Z,-3.19
2022-12-17T06:59:30.771Z,-3.20
2022-12-17T07:02:16.289Z,-3.21
2022-12-17T07:05:01.849Z,-3.20
2022-12-17T07:07:47.283Z,-3.16
2022-12-17T07:10:32.699Z,-3.20
2022-12-17T07:13:25.262Z,-3.20
2022-12-17T07:16:11.572Z,-3.16
2022-12-17T07:18:57.339Z,-3.15
2022-12-17T07:21:43.264Z,-3.15
2022-12-17T07:24:28.558Z,-3.16
2022-12-17T07:27:13.972Z,-3.17
2022-12-17T07:29:59.412Z,-3.18
2022-12-17T07:32:44.921Z,-3.13
2022-12-17T07:35:30.222Z,-3.07
2022-12-17T07:38:20.126Z,-3.01
2022-12-17T07:41:05.561Z,-2.94
2022-12-17T07:43:53.234Z,-2.88
2022-12-17T07:46:39.125Z,-2.80
2022-12-17T07:49:26.135Z,-2.74
2022-12-17T07:52:11.980Z,-2.75
2022-12-17T07:54:57.460Z,-2.75
2022-12-17T07:57:43.434Z,-2.74
2022-12-17T08:00:29.240Z,-2.78
2022-12-17T08:03:18.763Z,-2.88
2022-12-17T08:06:04.840Z,-2.92
2022-12-17T08:08:50.155Z,-2.92
2022-12-17T08:11:35.664Z,-2.79
2022-12-17T08:14:21.182Z,-2.63
2022-12-17T08:17:06.534Z,-2.45
2022-12-17T08:19:52.116Z,-2.26
2022-12-17T08:22:37.458Z,-2.22
2022-12-17T08:25:23.249Z,-2.05
2022-12-17T08:28:33.870Z,-2.06
2022-12-17T08:31:20.361Z,-1.98
2022-12-17T08:34:08.035Z,-2.12
2022-12-17T08:36:53.524Z,-2.19
2022-12-17T08:39:38.856Z,-2.10
2022-12-17T08:42:24.129Z,-2.09
2022-12-17T08:45:17.151Z,-2.07
2022-12-17T08:48:04.484Z,-1.98
2022-12-17T08:50:49.688Z,-1.92
2022-12-17T08:53:35.383Z,-1.83
2022-12-17T08:56:20.935Z,-1.77
2022-12-17T08:59:06.227Z,-1.69
2022-12-17T09:02:11.589Z,-1.60
2022-12-17T09:04:57.045Z,-1.55
2022-12-17T09:07:42.305Z,-1.43
2022-12-17T09:10:28.035Z,-1.35
2022-12-17T09:13:13.543Z,-1.25
2022-12-17T09:15:58.789Z,-1.17
2022-12-17T09:19:00.874Z,-1.08
2022-12-17T09:21:47.257Z,-1.01
2022-12-17T09:24:32.561Z,-0.86
2022-12-17T09:27:17.919Z,-0.78
2022-12-17T09:30:03.047Z,-0.73
2022-12-17T09:32:49.444Z,-0.63
2022-12-17T09:35:34.897Z,-0.57
2022-12-17T09:38:20.105Z,-0.55
2022-12-17T09:41:08.663Z,-0.47
2022-12-17T09:43:57.213Z,-0.43
2022-12-17T09:46:50.010Z,-0.35
2022-12-17T09:49:44.449Z,-0.29
2022-12-17T09:52:36.324Z,-0.27
2022-12-17T09:55:28.402Z,-0.18
2022-12-17T09:58:13.804Z,-0.07
2022-12-17T10:01:01.082Z,-0.01
2022-12-17T10:03:49.033Z,0.08
2022-12-17T10:06:46.911Z,0.19
2022-12-17T10:09:35.296Z,0.30
2022-12-17T10:12:34.743Z,0.40
2022-12-17T10:15:20.592Z,0.55
2022-12-17T10:18:06.122Z,0.57
2022-12-17T10:20:56.751Z,0.75
2022-12-17T10:23:50.889Z,0.86
2022-12-17T10:26:53.071Z,1.20
2022-12-17T10:29:47.114Z,1.57
2022-12-17T10:32:33.278Z,2.11
2022-12-17T10:35:21.189Z,2.80
2022-12-17T10:38:07.091Z,4.82
2022-12-17T10:40:52.970Z,7.53
2022-12-17T10:43:45.848Z,10.39
2022-12-17T10:46:47.982Z,12.20
2022-12-17T10:49:36.908Z,12.44
2022-12-17T10:52:33.324Z,12.36
2022-12-17T10:55:24.491Z,11.70
2022-12-17T10:58:11.260Z,11.56
2022-12-17T11:00:58.959Z,11.21
2022-12-17T11:03:47.310Z,11.61
2022-12-17T11:06:42.203Z,11.46
2022-12-17T11:10:09.788Z,11.15
2022-12-17T11:13:08.570Z,11.45
2022-12-17T11:16:03.006Z,12.07
2022-12-17T11:19:22.768Z,12.27
2022-12-17T11:22:12.644Z,13.67
2022-12-17T11:25:11.249Z,13.53
2022-12-17T11:28:03.164Z,14.48
2022-12-17T11:31:02.980Z,15.12
2022-12-17T11:33:57.919Z,16.83
2022-12-17T11:36:50.334Z,18.25
2022-12-17T11:39:44.672Z,18.83
2022-12-17T11:42:48.437Z,18.06
2022-12-17T11:46:11.776Z,17.74
2022-12-17T11:49:24.675Z,18.00
2022-12-17T11:52:29.854Z,17.10
2022-12-17T11:55:54.751Z,15.46
2022-12-17T11:59:00.173Z,14.30
2022-12-17T12:02:03.908Z,14.10
2022-12-17T12:05:15.522Z,13.69
2022-12-17T12:08:23.549Z,12.66
2022-12-17T12:11:21.301Z,12.04
2022-12-17T12:14:23.829Z,11.08
2022-12-17T12:17:27.040Z,10.06
2022-12-17T12:20:40.456Z,9.42
2022-12-17T12:23:41.307Z,8.20
2022-12-17T12:26:41.644Z,7.71
2022-12-17T12:29:45.959Z,7.30
2022-12-17T12:32:37.285Z,6.46
2022-12-17T12:35:26.252Z,6.00
2022-12-17T12:38:11.841Z,5.55
2022-12-17T12:41:27.134Z,5.60
2022-12-17T12:44:18.209Z,5.41
2022-12-17T12:47:20.755Z,5.16
2022-12-17T12:50:16.863Z,5.06
2022-12-17T12:53:02.716Z,5.03
2022-12-17T12:56:00.289Z,4.95
2022-12-17T12:58:47.210Z,4.88
2022-12-17T13:01:33.166Z,4.65
2022-12-17T13:04:20.727Z,4.71
2022-12-17T13:06:54.116Z,4.67
2022-12-17T13:09:32.213Z,4.46
2022-12-17T13:12:04.074Z,4.46
2022-12-17T13:14:36.413Z,4.39
2022-12-17T13:17:28.012Z,4.30
2022-12-17T13:19:57.658Z,4.27
2022-12-17T13:22:24.835Z,4.26
2022-12-17T13:24:55.066Z,4.26
2022-12-17T13:27:33.771Z,4.28
2022-12-17T13:30:29.763Z,4.35
2022-12-17T13:33:21.429Z,4.31
2022-12-17T13:35:53.705Z,4.38
2022-12-17T13:38:44.773Z,4.40
2022-12-17T13:41:16.637Z,4.43
2022-12-17T13:43:50.855Z,4.40
2022-12-17T13:46:23.389Z,4.34
2022-12-17T13:48:56.315Z,4.36
2022-12-17T13:51:24.688Z,4.33
2022-12-17T13:53:53.890Z,4.39
2022-12-17T13:56:29.841Z,4.21
2022-12-17T13:59:00.915Z,3.89
2022-12-17T14:01:30.524Z,4.10
2022-12-17T14:04:06.611Z,3.88
2022-12-17T14:06:37.991Z,3.82
2022-12-17T14:09:05.380Z,3.90
2022-12-17T14:11:52.310Z,4.00
2022-12-17T14:14:31.570Z,3.82
2022-12-17T14:16:58.921Z,3.97
2022-12-17T14:19:28.015Z,3.91
2022-12-17T14:21:55.567Z,3.96
2022-12-17T14:24:27.155Z,4.01
2022-12-17T14:26:58.161Z,4.01
2022-12-17T14:29:29.137Z,3.75
2022-12-17T14:31:58.790Z,3.92
2022-12-17T14:34:25.836Z,3.81
2022-12-17T14:36:55.670Z,3.84
2022-12-17T14:39:30.258Z,3.79
2022-12-17T14:42:18.081Z,3.75
2022-12-17T14:44:54.031Z,3.87
2022-12-17T14:47:27.179Z,3.56
2022-12-17T14:50:06.726Z,3.58
2022-12-17T14:52:33.559Z,3.55
2022-12-17T14:55:00.732Z,3.53
2022-12-17T14:57:27.404Z,3.53
2022-12-17T14:59:54.124Z,3.43
2022-12-17T15:02:27.722Z,3.47
2022-12-17T15:05:01.759Z,3.49
2022-12-17T15:07:30.223Z,3.45
2022-12-17T15:10:00.099Z,3.40
2022-12-17T15:12:27.796Z,3.38
2022-12-17T15:14:54.451Z,3.35
2022-12-17T15:17:21.896Z,3.30
2022-12-17T15:19:55.575Z,3.24
2022-12-17T15:22:23.243Z,3.16
2022-12-17T15:24:49.862Z,3.11
2022-12-17T15:27:17.166Z,3.07
2022-12-17T15:29:45.002Z,2.98
2022-12-17T15:32:22.725Z,2.82
2022-12-17T15:34:50.476Z,2.85
2022-12-17T15:37:22.489Z,2.78
2022-12-17T15:39:52.251Z,2.78
2022-12-17T15:42:37.486Z,2.73
2022-12-17T15:45:04.587Z,2.72
2022-12-17T15:47:31.197Z,2.73
2022-12-17T15:49:57.921Z,2.76
2022-12-17T15:52:24.594Z,2.74
2022-12-17T15:54:51.256Z,2.75
2022-12-17T15:57:18.837Z,2.74
2022-12-17T15:59:45.833Z,2.69
2022-12-17T16:02:13.096Z,2.68
2022-12-17T16:04:40.842Z,2.67
2022-12-17T16:07:07.874Z,2.70
2022-12-17T16:09:34.627Z,2.68
2022-12-17T16:12:01.245Z,2.63
2022-12-17T16:14:27.927Z,2.56
2022-12-17T16:16:54.643Z,2.43
2022-12-17T16:19:23.899Z,2.35
2022-12-17T16:21:50.601Z,2.22
2022-12-17T16:24:17.653Z,2.16
2022-12-17T16:26:44.583Z,2.14
2022-12-17T16:29:11.340Z,2.11
2022-12-17T16:31:38.098Z,2.06
2022-12-17T16:34:09.790Z,2.03
2022-12-17T16:36:36.968Z,1.93
2022-12-17T16:39:05.103Z,1.89
2022-12-17T16:41:32.518Z,1.91
2022-12-17T16:43:59.168Z,1.86
2022-12-17T16:46:32.155Z,1.83
2022-12-17T16:49:04.952Z,1.83
2022-12-17T16:51:31.838Z,1.79
2022-12-17T16:53:59.282Z,1.76
2022-12-17T16:56:28.375Z,1.75
2022-12-17T16:58:56.219Z,1.75
2022-12-17T17:01:26.050Z,1.73
2022-12-17T17:03:53.271Z,1.71
2022-12-17T17:06:20.622Z,1.66
2022-12-17T17:08:47.528Z,1.63
2022-12-17T17:11:22.104Z,1.60
2022-12-17T17:13:50.447Z,1.58
2022-12-17T17:16:19.005Z,1.49
2022-12-17T17:18:45.772Z,1.41
2022-12-17T17:21:12.333Z,1.39
2022-12-17T17:23:39.328Z,1.33
2022-12-17T17:26:06.164Z,1.32
2022-12-17T17:28:32.908Z,1.29
2022-12-17T17:31:03.498Z,1.33
2022-12-17T17:33:32.047Z,1.33
2022-12-17T17:36:11.349Z,1.32
2022-12-17T17:38:40.026Z,1.35
2022-12-17T17:41:10.769Z,1.36
2022-12-17T17:43:37.429Z,1.37
2022-12-17T17:46:09.173Z,1.39
2022-12-17T17:48:37.070Z,1.28
2022-12-17T17:51:10.986Z,1.23
2022-12-17T17:53:38.283Z,1.22
2022-12-17T17:56:07.149Z,1.20
2022-12-17T17:58:34.724Z,1.22
2022-12-17T18:01:08.004Z,1.20
2022-12-17T18:03:35.004Z,1.17
2022-12-17T18:06:03.351Z,1.12
2022-12-17T18:08:34.436Z,1.05
2022-12-17T18:11:02.415Z,1.01
2022-12-17T18:13:47.873Z,0.87
2022-12-17T18:16:15.353Z,0.90
2022-12-17T18:18:42.339Z,0.86
2022-12-17T18:21:11.442Z,0.77
2022-12-17T18:23:39.222Z,0.71
2022-12-17T18:26:18.063Z,0.67
2022-12-17T18:28:46.081Z,0.54
2022-12-17T18:31:22.035Z,0.56
2022-12-17T18:33:52.029Z,0.60
2022-12-17T18:36:21.751Z,0.54
2022-12-17T18:38:55.241Z,0.59
2022-12-17T18:41:40.650Z,0.58
2022-12-17T18:44:07.415Z,0.47
2022-12-17T18:46:35.247Z,0.49
2022-12-17T18:49:10.885Z,0.57
2022-12-17T18:51:40.172Z,0.55
2022-12-17T18:54:08.906Z,0.42
2022-12-17T18:57:00.533Z,0.45
2022-12-17T18:59:29.022Z,0.44
2022-12-17T19:01:57.222Z,0.32
2022-12-17T19:04:25.443Z,0.27
2022-12-17T19:06:53.504Z,0.15
2022-12-17T19:09:27.789Z,0.20
2022-12-17T19:11:55.852Z,0.21
2022-12-17T19:14:23.382Z,0.23
2022-12-17T19:16:52.212Z,0.24
2022-12-17T19:19:19.236Z,0.25
2022-12-17T19:21:46.107Z,0.16
2022-12-17T19:24:14.896Z,0.15
2022-12-17T19:26:42.258Z,0.07
2022-12-17T19:29:10.729Z,-0.13
2022-12-17T19:31:38.105Z,-0.13
2022-12-17T19:34:07.232Z,-0.14
2022-12-17T19:36:35.500Z,-0.04
2022-12-17T19:39:05.205Z,0.01
2022-12-17T19:41:32.934Z,0.03
2022-12-17T19:44:05.500Z,-0.33
2022-12-17T19:46:34.942Z,-0.26
2022-12-17T19:49:01.884Z,-0.18
2022-12-17T19:51:30.677Z,-0.27
2022-12-17T19:54:00.619Z,-0.38
2022-12-17T19:56:33.808Z,-0.39
2022-12-17T19:59:03.583Z,-0.40
2022-12-17T20:01:36.591Z,-0.30
2022-12-17T20:04:04.696Z,-0.39
2022-12-17T20:06:33.206Z,-0.36
2022-12-17T20:09:01.079Z,-0.36
2022-12-17T20:11:33.803Z,-0.38
2022-12-17T20:14:11.070Z,-0.35
2022-12-17T20:16:43.440Z,-0.36
2022-12-17T20:19:19.001Z,-0.29
2022-12-17T20:21:46.100Z,-0.25
2022-12-17T20:24:14.344Z,-0.26
2022-12-17T20:26:41.772Z,-0.28
2022-12-17T20:29:09.003Z,-0.28
2022-12-17T20:31:37.025Z,-0.38
2022-12-17T20:34:05.617Z,-0.29
2022-12-17T20:36:32.760Z,-0.30
2022-12-17T20:38:59.888Z,-0.30
2022-12-17T20:41:28.852Z,-0.29
2022-12-17T20:43:55.702Z,-0.33
2022-12-17T20:46:23.724Z,-0.29
2022-12-17T20:48:51.386Z,-0.34
2022-12-17T20:51:27.284Z,-0.33
2022-12-17T20:53:56.120Z,-0.36
2022-12-17T20:56:25.511Z,-0.36
2022-12-17T20:59:03.144Z,-0.40
2022-12-17T21:01:32.060Z,-0.36
2022-12-17T21:03:59.606Z,-0.44
2022-12-17T21:06:57.317Z,-0.41
2022-12-17T21:09:25.272Z,-0.47
2022-12-17T21:11:51.973Z,-0.63
2022-12-17T21:14:19.345Z,-0.78
2022-12-17T21:16:46.813Z,-0.68
2022-12-17T21:19:16.787Z,-0.69
2022-12-17T21:21:43.962Z,-0.78
2022-12-17T21:24:10.877Z,-0.74
2022-12-17T21:26:40.296Z,-0.68
2022-12-17T21:29:08.465Z,-0.63
2022-12-17T21:31:41.671Z,-0.56
2022-12-17T21:34:12.104Z,-0.54
2022-12-17T21:36:39.555Z,-0.47
2022-12-17T21:39:08.696Z,-0.44
2022-12-17T21:41:40.316Z,-0.44
2022-12-17T21:44:13.094Z,-0.43
2022-12-17T21:46:40.916Z,-0.46
2022-12-17T21:49:07.563Z,-0.46
2022-12-17T21:51:34.613Z,-0.47
2022-12-17T21:54:08.377Z,-0.47
2022-12-17T21:56:36.262Z,-0.55
2022-12-17T21:59:02.972Z,-0.61
2022-12-17T22:01:32.314Z,-0.76
2022-12-17T22:04:01.329Z,-0.83
2022-12-17T22:06:32.792Z,-0.93
2022-12-17T22:09:11.714Z,-0.94
2022-12-17T22:11:46.238Z,-1.07
2022-12-17T22:14:20.293Z,-1.09
2022-12-17T22:16:49.504Z,-1.06
2022-12-17T22:19:21.799Z,-1.09
2022-12-17T22:21:56.386Z,-1.13
2022-12-17T22:24:26.046Z,-1.12
2022-12-17T22:27:00.021Z,-1.12
2022-12-17T22:29:46.442Z,-1.16
2022-12-17T22:32:31.705Z,-1.17
2022-12-17T22:36:49.165Z,-1.21
2022-12-17T22:42:06.219Z,-1.26
2022-12-17T22:44:34.122Z,-1.19
2022-12-17T22:44:37.716Z,-1.17
2022-12-17T22:46:19.360Z,-1.14
2022-12-17T22:48:46.396Z,-1.09
2022-12-17T22:51:20.851Z,-1.02
2022-12-17T22:53:55.732Z,-1.00
2022-12-17T22:57:05.152Z,-1.00
2022-12-17T22:59:18.284Z,-0.97
2022-12-17T23:01:45.114Z,-1.00
2022-12-17T23:04:14.089Z,-1.00
2022-12-17T23:06:42.194Z,-0.96
2022-12-17T23:09:08.849Z,-0.96
2022-12-17T23:11:35.598Z,-0.96
2022-12-17T23:14:02.575Z,-0.97
2022-12-17T23:16:30.124Z,-1.00
2022-12-17T23:19:00.476Z,-1.02
2022-12-17T23:21:27.607Z,-0.98
2022-12-17T23:23:55.808Z,-1.00
2022-12-17T23:26:31.470Z,-0.96
2022-12-17T23:29:01.762Z,-0.96
2022-12-17T23:31:32.268Z,-0.98
2022-12-17T23:33:59.163Z,-0.99
2022-12-17T23:36:26.918Z,-0.99
2022-12-17T23:38:56.720Z,-0.99
2022-12-17T23:41:26.724Z,-1.25
2022-12-17T23:43:54.007Z,-1.27
2022-12-17T23:46:21.902Z,-1.35
2022-12-17T23:48:48.982Z,-1.29
2022-12-17T23:51:18.032Z,-1.25
2022-12-17T23:53:45.132Z,-1.29
2022-12-17T23:56:20.966Z,-1.31
2022-12-17T23:58:48.300Z,-1.21
